createdAt,value
2023-04-26T00:04:30.204Z,8.70
2023-04-26T00:14:34.268Z,8.90
2023-04-26T00:24:40.158Z,8.40
2023-04-26T00:34:43.742Z,8.30
2023-04-26T00:44:50.570Z,9.40
2023-04-26T00:54:55.034Z,10.50
2023-04-26T01:05:02.591Z,10.40
2023-04-26T01:15:07.632Z,8.00
2023-04-26T01:25:13.735Z,9.00
2023-04-26T01:35:19.738Z,8.20
2023-04-26T01:45:25.376Z,9.60
2023-04-26T01:55:51.313Z,12.20
2023-04-26T02:05:54.879Z,8.40
2023-04-26T02:16:02.109Z,8.10
2023-04-26T02:26:05.800Z,8.50
2023-04-26T02:36:09.514Z,8.00
2023-04-26T02:46:14.156Z,9.20
2023-04-26T02:56:20.149Z,9.60
2023-04-26T03:06:23.916Z,10.00
2023-04-26T03:16:30.603Z,8.80
2023-04-26T03:26:36.122Z,8.60
2023-04-26T03:36:40.011Z,8.90
2023-04-26T03:46:48.050Z,9.80
2023-04-26T03:56:53.113Z,9.00
2023-04-26T04:06:57.252Z,8.00
2023-04-26T04:17:05.698Z,10.10
2023-04-26T04:27:09.352Z,8.70
2023-04-26T04:37:18.814Z,9.30
2023-04-26T04:47:24.592Z,8.20
2023-04-26T04:57:28.633Z,9.00
2023-04-26T05:07:33.925Z,6.40
2023-04-26T05:17:38.852Z,7.80
2023-04-26T05:27:54.437Z,7.90
2023-04-26T05:38:26.120Z,7.60
2023-04-26T05:48:30.199Z,7.90
2023-04-26T05:58:34.272Z,8.80
2023-04-26T06:08:41.687Z,7.90
2023-04-26T06:18:46.494Z,8.40
2023-04-26T06:28:50.205Z,8.30
2023-04-26T06:38:55.467Z,7.50
2023-04-26T06:48:59.117Z,8.10
2023-04-26T06:59:10.028Z,6.50
2023-04-26T07:10:19.026Z,8.00
2023-04-26T07:20:24.443Z,6.90
2023-04-26T07:30:28.038Z,6.80
2023-04-26T07:40:52.444Z,7.00
2023-04-26T07:50:57.210Z,6.00
2023-04-26T08:01:02.769Z,6.20
2023-04-26T08:11:10.334Z,6.40
2023-04-26T08:22:14.646Z,5.10
2023-04-26T08:32:18.289Z,6.40
2023-04-26T08:42:28.263Z,7.10
2023-04-26T08:52:33.192Z,8.50
2023-04-26T09:02:40.140Z,6.60
2023-04-26T09:12:44.036Z,6.70
2023-04-26T09:22:49.328Z,8.90
2023-04-26T09:33:02.768Z,5.90
2023-04-26T09:43:13.779Z,4.50
2023-04-26T09:53:33.614Z,6.60
2023-04-26T10:03:38.458Z,5.60
2023-04-26T10:13:44.735Z,5.20
2023-04-26T10:23:50.792Z,6.80
2023-04-26T10:34:25.042Z,5.20
2023-04-26T10:44:59.783Z,5.90
2023-04-26T10:55:06.488Z,4.80
2023-04-26T11:05:32.249Z,5.10
2023-04-26T11:15:36.367Z,5.00
2023-04-26T11:25:42.560Z,5.40
2023-04-26T11:35:53.888Z,4.90
2023-04-26T11:46:02.087Z,7.20
2023-04-26T11:56:16.904Z,5.80
2023-04-26T12:06:22.982Z,5.10
2023-04-26T12:16:27.253Z,6.60
2023-04-26T12:26:45.272Z,4.20
2023-04-26T12:36:50.606Z,5.10
2023-04-26T12:46:54.372Z,4.60
2023-04-26T12:56:58.018Z,3.50
2023-04-26T13:07:01.899Z,5.90
2023-04-26T13:17:09.868Z,5.50
2023-04-26T13:27:13.765Z,3.50
2023-04-26T13:37:20.303Z,4.10
2023-04-26T13:47:28.925Z,3.50
2023-04-26T13:57:32.588Z,5.90
2023-04-26T14:07:57.863Z,4.60
2023-04-26T14:18:01.520Z,4.20
2023-04-26T14:28:08.924Z,5.00
2023-04-26T14:38:12.607Z,4.50
2023-04-26T14:48:19.418Z,5.90
2023-04-26T14:58:26.429Z,5.30
2023-04-26T15:08:30.325Z,5.60
2023-04-26T15:18:39.379Z,5.50
2023-04-26T15:28:43.194Z,6.60
2023-04-26T15:38:50.051Z,6.10
2023-04-26T15:48:53.756Z,5.50
2023-04-26T15:58:59.455Z,6.10
2023-04-26T16:09:23.469Z,9.60
2023-04-26T16:19:29.551Z,7.10
2023-04-26T16:29:35.202Z,6.50
2023-04-26T16:39:38.992Z,7.20
2023-04-26T16:49:46.620Z,9.40
2023-04-26T16:59:51.827Z,5.70
2023-04-26T17:09:56.158Z,6.30
2023-04-26T17:20:04.333Z,6.40
2023-04-26T17:30:08.663Z,6.60
2023-04-26T17:40:12.642Z,6.60
2023-04-26T17:50:18.545Z,7.40
2023-04-26T18:00:24.190Z,7.70
2023-04-26T18:10:27.874Z,9.70
2023-04-26T18:20:37.078Z,7.20
2023-04-26T18:30:41.075Z,6.30
2023-04-26T18:40:48.089Z,7.20
2023-04-26T18:50:55.965Z,5.40
2023-04-26T19:00:59.575Z,6.00
2023-04-26T19:11:03.812Z,7.30
2023-04-26T19:21:15.337Z,6.20
2023-04-26T19:32:01.974Z,7.60
2023-04-26T19:42:11.624Z,8.60
2023-04-26T19:52:17.397Z,8.60
2023-04-26T20:02:22.775Z,8.70
2023-04-26T20:12:30.681Z,8.10
2023-04-26T20:22:36.472Z,9.00
2023-04-26T20:32:40.404Z,9.60
2023-04-26T20:42:44.086Z,8.50
2023-04-26T20:52:47.844Z,11.90
2023-04-26T21:02:53.539Z,10.00
2023-04-26T21:12:57.370Z,11.30
2023-04-26T21:23:06.979Z,8.90
2023-04-26T21:33:10.817Z,9.70
2023-04-26T21:43:19.004Z,9.70
2023-04-26T21:53:23.147Z,9.90
2023-04-26T22:03:30.729Z,10.50
2023-04-26T22:13:35.576Z,9.70
2023-04-26T22:23:39.320Z,10.30
2023-04-26T22:33:43.172Z,9.10
2023-04-26T22:43:53.219Z,10.50
2023-04-26T22:54:00.573Z,8.80
2023-04-26T23:04:05.414Z,9.10
2023-04-26T23:14:11.400Z,9.20
2023-04-26T23:24:15.135Z,8.20
2023-04-26T23:34:20.858Z,8.30
2023-04-26T23:44:26.767Z,7.80
2023-04-26T23:54:33.057Z,7.40
